Time;durP1;ratioP1;P1;durP2;ratioP2;P2;SDS_P1;SDS_P2;PMS_P1;PMS_P2;Temp;Humidity;BMP_temperature;BMP_pressure;BME280_temperature;BME280_humidity;BME280_pressure;Samples;Min_cycle;Max_cycle;Signal;HPM_P1;HPM_P2
2022/02/16 00:01:20;;;;;;;431.60;412.17;;;8.50;99.90;;;;;;4401115;32;20150;-61
2022/02/16 00:03:50;;;;;;;416.67;397.97;;;8.50;99.90;;;;;;4401263;32;20539;-61
2022/02/16 00:06:17;;;;;;;433.77;414.33;;;8.50;99.90;;;;;;4392736;32;20564;-60
2022/02/16 00:08:45;;;;;;;458.00;437.13;;;8.50;99.90;;;;;;4398898;32;20153;-60
2022/02/16 00:11:13;;;;;;;412.00;393.53;;;8.60;99.90;;;;;;4393334;32;20230;-60
2022/02/16 00:13:40;;;;;;;410.50;392.03;;;8.60;99.90;;;;;;4397830;32;20205;-60
2022/02/16 00:16:09;;;;;;;419.13;400.37;;;8.60;99.90;;;;;;4394731;32;20183;-61
2022/02/16 00:18:38;;;;;;;432.83;413.40;;;8.60;99.90;;;;;;4406198;32;20143;-60
2022/02/16 00:21:06;;;;;;;446.40;426.13;;;8.60;99.90;;;;;;4407234;32;20144;-61
2022/02/16 00:23:33;;;;;;;442.13;421.53;;;8.60;99.90;;;;;;4407194;32;20495;-61
2022/02/16 00:26:02;;;;;;;426.00;407.17;;;8.60;99.90;;;;;;4401009;32;20571;-60
2022/02/16 00:28:29;;;;;;;420.97;402.23;;;8.50;99.90;;;;;;4401832;32;20634;-61
2022/02/16 00:30:56;;;;;;;451.17;430.87;;;8.50;99.90;;;;;;4406612;32;20148;-60
2022/02/16 00:33:27;;;;;;;441.93;422.00;;;8.60;99.90;;;;;;4398719;32;20202;-61
2022/02/16 00:35:57;;;;;;;433.77;414.20;;;8.50;99.90;;;;;;4398094;32;20150;-61
2022/02/16 00:38:24;;;;;;;438.83;418.87;;;8.50;99.90;;;;;;4399200;32;20216;-60
2022/02/16 00:40:51;;;;;;;444.70;424.07;;;8.50;99.90;;;;;;4392308;32;20163;-61
2022/02/16 00:43:17;;;;;;;439.53;419.47;;;8.50;99.90;;;;;;4393830;32;20249;-60
2022/02/16 00:45:44;;;;;;;434.60;414.67;;;8.50;99.90;;;;;;4406349;32;20167;-60
2022/02/16 00:48:11;;;;;;;445.80;425.77;;;8.50;99.90;;;;;;4395890;32;20148;-61
2022/02/16 00:50:40;;;;;;;447.57;426.93;;;8.50;99.90;;;;;;4392070;32;20184;-60
2022/02/16 00:53:08;;;;;;;428.07;408.57;;;8.50;99.90;;;;;;4398062;32;20165;-60
2022/02/16 00:55:35;;;;;;;449.03;428.67;;;8.50;99.90;;;;;;4397411;32;20166;-60
2022/02/16 00:58:05;;;;;;;450.53;429.80;;;8.50;99.90;;;;;;4402905;32;20174;-60
2022/02/16 01:00:36;;;;;;;445.73;425.07;;;8.50;99.90;;;;;;4392048;32;20175;-60
2022/02/16 01:03:03;;;;;;;437.63;417.83;;;8.50;99.90;;;;;;4391771;32;20147;-60
2022/02/16 01:05:30;;;;;;;424.77;405.83;;;8.50;99.90;;;;;;4391901;32;20172;-62
2022/02/16 01:07:59;;;;;;;436.43;416.33;;;8.50;99.90;;;;;;4392322;32;20139;-60
2022/02/16 01:10:26;;;;;;;443.10;422.70;;;8.50;99.90;;;;;;4400201;32;20167;-61
2022/02/16 01:12:53;;;;;;;443.87;423.60;;;8.50;99.90;;;;;;4392108;32;20143;-61
2022/02/16 01:15:20;;;;;;;460.17;438.93;;;8.50;99.90;;;;;;4391293;32;20152;-61
2022/02/16 01:17:47;;;;;;;434.80;415.17;;;8.60;99.90;;;;;;4397928;32;20163;-61
2022/02/16 01:20:16;;;;;;;443.67;423.63;;;8.60;99.90;;;;;;4392771;32;20183;-61
2022/02/16 01:22:43;;;;;;;418.03;399.40;;;8.50;99.90;;;;;;4397497;32;20168;-61
2022/02/16 01:25:11;;;;;;;444.87;424.83;;;8.50;99.90;;;;;;4403492;32;20144;-60
2022/02/16 01:27:38;;;;;;;459.50;438.23;;;8.50;99.90;;;;;;4391963;32;20184;-61
2022/02/16 01:30:07;;;;;;;482.83;460.27;;;8.40;99.90;;;;;;4392622;32;20172;-60
2022/02/16 01:32:34;;;;;;;478.00;455.93;;;8.40;99.90;;;;;;4398850;32;20196;-61
2022/02/16 01:35:05;;;;;;;464.50;442.93;;;8.40;99.90;;;;;;4402012;32;20635;-61
2022/02/16 01:37:32;;;;;;;496.63;473.80;;;8.30;99.90;;;;;;4401043;32;20548;-61
2022/02/16 01:39:59;;;;;;;466.57;445.43;;;8.30;99.90;;;;;;4399864;32;20160;-61
2022/02/16 01:42:28;;;;;;;492.00;469.40;;;8.30;99.90;;;;;;4391262;32;20147;-61
2022/02/16 01:44:57;;;;;;;456.60;436.27;;;8.30;99.90;;;;;;4395348;32;20146;-61
2022/02/16 01:47:25;;;;;;;453.20;432.27;;;8.40;99.90;;;;;;4406074;32;20203;-61
2022/02/16 01:49:52;;;;;;;469.47;447.90;;;8.40;99.90;;;;;;4397671;32;20151;-62
2022/02/16 01:52:19;;;;;;;488.67;465.97;;;8.30;99.90;;;;;;4397839;32;20208;-61
2022/02/16 01:54:46;;;;;;;493.20;470.53;;;8.30;99.90;;;;;;4390940;32;20147;-61
2022/02/16 01:57:14;;;;;;;520.73;496.30;;;8.30;99.90;;;;;;4390518;32;20489;-61
2022/02/16 01:59:43;;;;;;;500.53;476.93;;;8.30;99.90;;;;;;4394125;32;20215;-61
2022/02/16 02:02:10;;;;;;;508.47;484.03;;;8.40;99.90;;;;;;4399956;32;20463;-61
2022/02/16 02:04:36;;;;;;;510.23;486.23;;;8.40;99.90;;;;;;4391873;32;20168;-61
2022/02/16 02:07:04;;;;;;;551.33;524.13;;;8.40;99.90;;;;;;4396992;32;20147;-61
2022/02/16 02:09:31;;;;;;;573.67;545.23;;;8.40;99.90;;;;;;4396090;32;20171;-61
2022/02/16 02:11:58;;;;;;;579.23;550.47;;;8.40;99.90;;;;;;4402238;32;20152;-61
2022/02/16 02:14:26;;;;;;;569.87;541.63;;;8.50;99.90;;;;;;4390994;32;20158;-61
2022/02/16 02:16:54;;;;;;;573.43;544.97;;;8.50;99.90;;;;;;4390435;32;20168;-61
2022/02/16 02:19:21;;;;;;;580.17;551.67;;;8.50;99.90;;;;;;4397506;32;20449;-61
2022/02/16 02:21:50;;;;;;;577.67;548.90;;;8.60;99.90;;;;;;4394284;32;20241;-61
2022/02/16 02:24:17;;;;;;;571.27;542.70;;;8.60;99.90;;;;;;4390536;32;20193;-61
2022/02/16 02:26:45;;;;;;;569.97;541.43;;;8.50;99.90;;;;;;4398299;32;20167;-61
2022/02/16 02:29:21;;;;;;;581.07;551.23;;;8.60;99.90;;;;;;4405431;32;20219;-61
2022/02/16 02:31:48;;;;;;;594.00;562.93;;;8.50;99.90;;;;;;4398849;32;20143;-61
2022/02/16 02:34:18;;;;;;;590.00;559.97;;;8.60;99.90;;;;;;4395365;32;20148;-60
2022/02/16 02:36:45;;;;;;;598.00;566.87;;;8.60;99.90;;;;;;4402668;32;20594;-61
2022/02/16 02:39:19;;;;;;;601.67;570.63;;;8.60;99.90;;;;;;4400554;32;20177;-61
2022/02/16 02:41:48;;;;;;;581.87;551.40;;;8.60;99.90;;;;;;4399776;32;20468;-60
2022/02/16 02:44:16;;;;;;;591.50;559.73;;;8.60;99.90;;;;;;4389988;32;20220;-60
2022/02/16 02:46:43;;;;;;;600.63;568.10;;;8.70;99.90;;;;;;4401400;32;20588;-60
2022/02/16 02:49:10;;;;;;;601.83;570.13;;;8.70;99.90;;;;;;4391829;32;20203;-61
2022/02/16 02:51:38;;;;;;;584.17;553.47;;;8.70;99.90;;;;;;4400979;32;20556;-60
2022/02/16 02:54:06;;;;;;;580.20;549.37;;;8.80;99.90;;;;;;4399556;32;20144;-60
2022/02/16 02:56:35;;;;;;;605.77;573.57;;;8.80;99.90;;;;;;4403814;32;20143;-60
2022/02/16 02:59:02;;;;;;;590.97;560.47;;;8.80;99.90;;;;;;4403114;32;20148;-60
2022/02/16 03:01:30;;;;;;;592.03;560.17;;;8.80;99.90;;;;;;4393110;32;20146;-61
2022/02/16 03:03:57;;;;;;;587.60;556.53;;;8.80;99.90;;;;;;4402563;32;20155;-60
2022/02/16 03:06:24;;;;;;;599.27;567.80;;;8.80;99.90;;;;;;4389811;32;20156;-61
2022/02/16 03:08:52;;;;;;;625.00;591.67;;;8.80;99.90;;;;;;4390112;32;20165;-60
2022/02/16 03:11:20;;;;;;;617.37;584.93;;;8.80;99.90;;;;;;4399690;32;20185;-60
2022/02/16 03:13:49;;;;;;;625.83;592.07;;;8.80;99.90;;;;;;4397788;32;20186;-62
2022/02/16 03:16:19;;;;;;;621.60;588.87;;;8.80;99.90;;;;;;4392992;32;20175;-62
2022/02/16 03:18:48;;;;;;;621.90;588.10;;;8.80;99.90;;;;;;4404266;32;20141;-61
2022/02/16 03:21:15;;;;;;;622.40;589.07;;;8.80;99.90;;;;;;4404026;32;20153;-61
2022/02/16 03:23:46;;;;;;;612.27;579.87;;;8.80;99.90;;;;;;4396898;32;20151;-60
2022/02/16 03:26:16;;;;;;;625.33;591.80;;;8.80;99.90;;;;;;4389728;32;20201;-59
2022/02/16 03:28:46;;;;;;;616.33;583.87;;;8.80;99.90;;;;;;4389139;32;20144;-60
2022/02/16 03:31:17;;;;;;;603.10;571.50;;;8.80;99.90;;;;;;4390179;32;20463;-60
2022/02/16 03:33:45;;;;;;;611.00;578.70;;;8.80;99.90;;;;;;4389957;32;20169;-59
2022/02/16 03:36:14;;;;;;;624.53;591.33;;;8.80;99.90;;;;;;4390190;32;20144;-59
2022/02/16 03:38:41;;;;;;;603.73;571.47;;;8.80;99.90;;;;;;4391053;32;20468;-60
2022/02/16 03:41:08;;;;;;;586.63;556.43;;;8.90;99.90;;;;;;4390310;32;20157;-59
2022/02/16 03:43:34;;;;;;;612.27;580.03;;;8.90;99.90;;;;;;4400771;32;20165;-60
2022/02/16 03:46:01;;;;;;;610.50;578.03;;;8.90;99.90;;;;;;4392536;32;20159;-60
2022/02/16 03:48:30;;;;;;;620.47;588.17;;;8.80;99.90;;;;;;4405010;32;20151;-60
2022/02/16 03:50:57;;;;;;;607.87;576.20;;;8.90;99.90;;;;;;4402083;32;20149;-59
2022/02/16 03:53:24;;;;;;;577.10;547.77;;;8.80;99.90;;;;;;4395529;32;20156;-60
2022/02/16 03:55:50;;;;;;;609.67;578.57;;;8.80;99.90;;;;;;4395658;32;20206;-61
2022/02/16 03:58:18;;;;;;;615.77;584.00;;;8.80;99.90;;;;;;4394550;32;20159;-60
2022/02/16 04:00:45;;;;;;;582.07;552.03;;;8.80;99.90;;;;;;4399585;32;20181;-60
2022/02/16 04:03:11;;;;;;;598.87;568.13;;;8.80;99.90;;;;;;4400082;32;20159;-60
2022/02/16 04:05:42;;;;;;;587.37;557.80;;;8.80;99.90;;;;;;4394691;32;20166;-60
2022/02/16 04:08:09;;;;;;;570.73;541.93;;;8.80;99.90;;;;;;4402364;32;20194;-60
2022/02/16 04:10:37;;;;;;;589.50;559.40;;;8.80;99.90;;;;;;4390644;32;20161;-60
2022/02/16 04:13:07;;;;;;;601.50;571.33;;;8.80;99.90;;;;;;4398865;32;20173;-60
2022/02/16 04:15:34;;;;;;;585.67;556.00;;;8.80;99.90;;;;;;4403316;32;20510;-60
2022/02/16 04:18:01;;;;;;;599.80;569.10;;;8.70;99.90;;;;;;4398294;32;20177;-61
2022/02/16 04:20:28;;;;;;;584.17;555.00;;;8.70;99.90;;;;;;4404457;32;20452;-59
2022/02/16 04:22:56;;;;;;;599.63;569.43;;;8.70;99.90;;;;;;4406717;32;20570;-59
2022/02/16 04:25:23;;;;;;;590.47;560.63;;;8.70;99.90;;;;;;4406955;32;20167;-60
2022/02/16 04:27:50;;;;;;;608.47;577.30;;;8.70;99.90;;;;;;4407454;32;20194;-59
2022/02/16 04:30:21;;;;;;;588.50;558.60;;;8.80;99.90;;;;;;4394355;32;20166;-60
2022/02/16 04:32:48;;;;;;;593.90;564.20;;;8.70;99.90;;;;;;4407118;32;20171;-59
2022/02/16 04:35:15;;;;;;;595.27;564.80;;;8.80;99.90;;;;;;4398573;32;20463;-60
2022/02/16 04:37:42;;;;;;;604.80;573.50;;;8.80;99.90;;;;;;4401632;32;20198;-62
2022/02/16 04:40:11;;;;;;;591.80;561.33;;;8.80;99.90;;;;;;4405237;32;20476;-59
2022/02/16 04:42:38;;;;;;;598.47;567.53;;;8.80;99.90;;;;;;4406638;32;20628;-60
2022/02/16 04:45:06;;;;;;;603.80;572.47;;;8.80;99.90;;;;;;4399732;32;20587;-62
2022/02/16 04:47:33;;;;;;;584.03;554.30;;;8.80;99.90;;;;;;4392204;32;20502;-59
2022/02/16 04:49:59;;;;;;;596.40;565.63;;;8.80;99.90;;;;;;4403253;32;20145;-60
2022/02/16 04:52:34;;;;;;;601.73;570.60;;;8.80;99.90;;;;;;4400119;32;20509;-61
2022/02/16 04:55:02;;;;;;;599.10;568.57;;;8.80;99.90;;;;;;4405894;32;20154;-60
2022/02/16 04:57:30;;;;;;;598.70;567.90;;;8.80;99.90;;;;;;4392092;32;20155;-60
2022/02/16 04:59:58;;;;;;;591.83;561.03;;;8.80;99.90;;;;;;4398154;32;20146;-59
2022/02/16 05:02:26;;;;;;;599.17;568.30;;;8.80;99.90;;;;;;4404065;32;20159;-60
2022/02/16 05:04:52;;;;;;;614.27;582.73;;;8.80;99.90;;;;;;4399259;32;20144;-62
2022/02/16 05:07:26;;;;;;;592.83;562.50;;;8.80;99.90;;;;;;4403632;32;20164;-59
2022/02/16 05:09:53;;;;;;;577.93;548.73;;;8.80;99.90;;;;;;4395825;32;20161;-61
2022/02/16 05:12:20;;;;;;;599.33;568.93;;;8.80;99.90;;;;;;4406296;32;20172;-60
2022/02/16 05:14:50;;;;;;;589.83;559.80;;;8.80;99.90;;;;;;4396726;32;20146;-61
2022/02/16 05:17:17;;;;;;;596.80;566.73;;;8.80;99.90;;;;;;4398130;32;20218;-61
2022/02/16 05:19:46;;;;;;;596.17;565.60;;;8.90;99.90;;;;;;4391553;32;20204;-60
2022/02/16 05:22:13;;;;;;;600.60;570.13;;;8.80;99.90;;;;;;4397411;32;20175;-59
2022/02/16 05:24:41;;;;;;;609.60;578.47;;;8.90;99.90;;;;;;4404025;32;20181;-61
2022/02/16 05:27:08;;;;;;;607.33;575.97;;;8.90;99.90;;;;;;4406553;32;20442;-61
2022/02/16 05:29:35;;;;;;;606.93;576.10;;;8.90;99.90;;;;;;4394953;32;20170;-61
2022/02/16 05:32:04;;;;;;;607.97;576.90;;;8.90;99.90;;;;;;4401544;32;20169;-62
2022/02/16 05:34:32;;;;;;;615.83;584.10;;;8.90;99.90;;;;;;4399816;32;20223;-61
2022/02/16 05:36:59;;;;;;;611.17;579.23;;;8.90;99.90;;;;;;4405983;32;20150;-59
2022/02/16 05:39:26;;;;;;;610.80;580.13;;;8.90;99.90;;;;;;4399247;32;20158;-59
2022/02/16 05:41:55;;;;;;;633.97;601.40;;;9.00;99.90;;;;;;4396671;32;20162;-61
2022/02/16 05:44:21;;;;;;;589.73;560.33;;;9.00;99.90;;;;;;4391557;32;20144;-60
2022/02/16 05:46:48;;;;;;;579.23;550.67;;;9.00;99.90;;;;;;4402438;32;20158;-60
2022/02/16 05:49:17;;;;;;;589.50;560.03;;;9.00;99.90;;;;;;4405893;32;20175;-61
2022/02/16 05:51:43;;;;;;;597.33;567.63;;;8.90;99.90;;;;;;4391784;32;20687;-61
2022/02/16 05:54:14;;;;;;;586.07;556.43;;;9.00;99.90;;;;;;4401418;32;20211;-61
2022/02/16 05:56:40;;;;;;;595.40;565.73;;;9.10;99.90;;;;;;4401847;32;20171;-60
2022/02/16 05:59:11;;;;;;;567.77;539.63;;;9.10;99.90;;;;;;4406727;32;20160;-59
2022/02/16 06:01:38;;;;;;;582.90;554.00;;;9.10;99.90;;;;;;4400136;32;20147;-61
2022/02/16 06:04:08;;;;;;;594.00;564.33;;;9.10;99.90;;;;;;4394700;32;20148;-59
2022/02/16 06:06:37;;;;;;;606.30;575.87;;;9.10;99.90;;;;;;4399710;32;20580;-61
2022/02/16 06:09:04;;;;;;;587.10;557.67;;;9.20;99.90;;;;;;4396352;32;20148;-61
2022/02/16 06:11:31;;;;;;;589.43;559.83;;;9.20;99.90;;;;;;4393374;32;20204;-59
2022/02/16 06:13:58;;;;;;;605.17;574.63;;;9.20;99.90;;;;;;4399846;32;20184;-63
2022/02/16 06:16:27;;;;;;;594.87;564.97;;;9.20;99.90;;;;;;4400270;32;20170;-60
2022/02/16 06:18:54;;;;;;;600.77;570.57;;;9.20;99.90;;;;;;4399191;32;20166;-60
2022/02/16 06:21:21;;;;;;;610.60;579.57;;;9.20;99.90;;;;;;4401291;32;20262;-60
2022/02/16 06:23:49;;;;;;;589.83;560.10;;;9.30;99.90;;;;;;4401528;32;20143;-62
2022/02/16 06:26:19;;;;;;;606.47;575.37;;;9.30;99.90;;;;;;4395169;32;20231;-59
2022/02/16 06:28:52;;;;;;;597.80;567.50;;;9.30;99.90;;;;;;4389366;32;20174;-60
2022/02/16 06:31:26;;;;;;;599.30;568.73;;;9.30;99.90;;;;;;4389695;32;20171;-61
2022/02/16 06:33:57;;;;;;;584.07;554.70;;;9.30;99.90;;;;;;4397455;32;20165;-61
2022/02/16 06:36:24;;;;;;;602.10;571.77;;;9.40;99.90;;;;;;4401208;32;20172;-60
2022/02/16 06:38:53;;;;;;;589.20;559.43;;;9.40;99.90;;;;;;4404720;32;20187;-61
2022/02/16 06:41:23;;;;;;;603.57;573.07;;;9.40;99.90;;;;;;4402225;32;20615;-62
2022/02/16 06:43:55;;;;;;;605.90;575.13;;;9.40;99.90;;;;;;4391437;32;20230;-61
2022/02/16 06:46:22;;;;;;;599.90;569.57;;;9.50;99.90;;;;;;4395363;32;20219;-62
2022/02/16 06:48:52;;;;;;;613.10;581.47;;;9.40;99.90;;;;;;4395416;32;20480;-61
2022/02/16 06:51:20;;;;;;;612.70;580.87;;;9.50;99.90;;;;;;4389572;32;20199;-61
2022/02/16 06:53:55;;;;;;;619.40;586.53;;;9.50;99.90;;;;;;4397509;32;21031;-60
2022/02/16 06:56:28;;;;;;;616.90;585.07;;;9.50;99.90;;;;;;4395144;32;20710;-61
2022/02/16 06:59:09;;;;;;;642.60;608.77;;;9.50;99.90;;;;;;4398512;32;20153;-59
2022/02/16 07:01:37;;;;;;;629.50;596.53;;;9.60;99.90;;;;;;4394953;32;20219;-60
2022/02/16 07:04:07;;;;;;;615.77;583.57;;;9.60;99.90;;;;;;4398307;32;20151;-61
2022/02/16 07:06:37;;;;;;;632.83;599.53;;;9.60;99.90;;;;;;4393712;32;20221;-60
2022/02/16 07:09:04;;;;;;;625.17;592.93;;;9.60;99.90;;;;;;4401040;32;20137;-60
2022/02/16 07:11:33;;;;;;;644.10;610.20;;;9.60;99.90;;;;;;4395117;32;20292;-59
2022/02/16 07:14:00;;;;;;;619.47;587.17;;;9.60;99.90;;;;;;4404013;32;20151;-60
2022/02/16 07:16:27;;;;;;;638.07;604.50;;;9.70;99.90;;;;;;4396487;32;20156;-59
2022/02/16 07:18:55;;;;;;;624.17;591.50;;;9.70;99.90;;;;;;4397608;32;20205;-60
2022/02/16 07:21:26;;;;;;;645.50;611.27;;;9.70;99.90;;;;;;4404960;32;20235;-60
2022/02/16 07:23:56;;;;;;;641.37;607.53;;;9.70;99.90;;;;;;4404632;32;20171;-60
2022/02/16 07:26:23;;;;;;;635.27;601.80;;;9.70;99.90;;;;;;4409341;32;20179;-60
2022/02/16 07:28:51;;;;;;;659.73;624.30;;;9.80;99.90;;;;;;4404949;32;20195;-61
2022/02/16 07:31:21;;;;;;;643.63;609.63;;;9.70;99.90;;;;;;4412521;32;20136;-60
2022/02/16 07:33:48;;;;;;;632.00;599.13;;;9.90;99.90;;;;;;4410778;32;20146;-59
2022/02/16 07:36:17;;;;;;;634.90;601.40;;;9.80;99.90;;;;;;4413784;32;20148;-60
2022/02/16 07:38:44;;;;;;;630.80;597.63;;;9.90;99.90;;;;;;4409605;32;20583;-59
2022/02/16 07:41:11;;;;;;;617.13;585.20;;;9.90;99.90;;;;;;4413385;32;20265;-60
2022/02/16 07:43:41;;;;;;;618.70;586.83;;;9.90;99.90;;;;;;4412512;32;20166;-59
2022/02/16 07:46:10;;;;;;;641.10;607.60;;;9.90;99.90;;;;;;4408037;32;20140;-61
2022/02/16 07:48:36;;;;;;;652.37;618.10;;;9.90;99.90;;;;;;4405495;32;20156;-61
2022/02/16 07:51:03;;;;;;;645.90;612.27;;;9.90;99.90;;;;;;4406724;32;20174;-60
2022/02/16 07:53:35;;;;;;;634.10;600.97;;;9.90;99.90;;;;;;4410553;32;20505;-59
2022/02/16 07:56:02;;;;;;;632.93;599.73;;;9.90;99.90;;;;;;4417312;32;20208;-60
2022/02/16 07:58:29;;;;;;;640.43;607.07;;;10.00;99.90;;;;;;4405439;32;20599;-60
2022/02/16 08:00:55;;;;;;;631.83;598.83;;;10.00;99.90;;;;;;4411230;32;20152;-59
2022/02/16 08:03:30;;;;;;;626.60;594.00;;;10.00;99.90;;;;;;4411337;32;20249;-59
2022/02/16 08:06:03;;;;;;;630.83;598.37;;;10.00;99.90;;;;;;4410252;32;20578;-59
2022/02/16 08:08:31;;;;;;;633.03;600.17;;;10.00;99.90;;;;;;4415513;32;20155;-60
2022/02/16 08:10:58;;;;;;;636.50;603.43;;;10.10;99.90;;;;;;4414749;32;20151;-60
2022/02/16 08:13:27;;;;;;;633.00;599.93;;;10.10;99.90;;;;;;4411564;32;20157;-60
2022/02/16 08:15:55;;;;;;;630.37;597.77;;;10.10;99.90;;;;;;4415564;32;20141;-61
2022/02/16 08:18:27;;;;;;;629.77;596.90;;;10.10;99.90;;;;;;4410328;32;20187;-60
2022/02/16 08:20:54;;;;;;;620.70;588.53;;;10.10;99.90;;;;;;4413085;32;20178;-60
2022/02/16 08:23:21;;;;;;;624.33;591.97;;;10.10;99.90;;;;;;4413608;32;20147;-60
2022/02/16 08:25:48;;;;;;;629.47;596.63;;;10.20;99.90;;;;;;4414407;32;20167;-60
2022/02/16 08:28:18;;;;;;;635.40;602.00;;;10.20;99.90;;;;;;4414358;32;20140;-60
2022/02/16 08:30:47;;;;;;;628.63;595.87;;;10.20;99.90;;;;;;4414391;32;20163;-61
2022/02/16 08:33:17;;;;;;;637.87;604.50;;;10.30;99.90;;;;;;4413928;32;20151;-63
2022/02/16 08:35:48;;;;;;;676.00;638.77;;;10.30;99.90;;;;;;4413018;32;20156;-62
2022/02/16 08:38:18;;;;;;;670.33;633.53;;;10.30;99.90;;;;;;4413663;32;20164;-61
2022/02/16 08:40:48;;;;;;;692.47;654.43;;;10.40;99.90;;;;;;4411383;32;20563;-62
2022/02/16 08:43:18;;;;;;;658.47;622.43;;;10.40;99.90;;;;;;4415845;32;20154;-60
2022/02/16 08:45:46;;;;;;;644.70;609.60;;;10.40;99.90;;;;;;4411945;32;20176;-61
2022/02/16 08:48:16;;;;;;;643.87;609.03;;;10.50;99.90;;;;;;4409624;32;20528;-62
2022/02/16 08:50:45;;;;;;;663.33;627.20;;;10.50;99.90;;;;;;4413006;32;20165;-62
2022/02/16 08:53:16;;;;;;;660.10;623.40;;;10.60;99.90;;;;;;4413061;32;20175;-62
2022/02/16 08:55:42;;;;;;;657.90;621.57;;;10.60;99.90;;;;;;4414933;32;20214;-62
2022/02/16 08:58:10;;;;;;;653.10;617.40;;;10.70;99.90;;;;;;4411622;32;20194;-60
2022/02/16 09:00:37;;;;;;;650.07;613.87;;;10.80;99.90;;;;;;4410749;32;20174;-61
2022/02/16 09:03:06;;;;;;;637.27;602.07;;;10.80;99.90;;;;;;4413436;32;20166;-61
2022/02/16 09:05:33;;;;;;;660.10;623.73;;;10.80;99.90;;;;;;4407237;32;20479;-62
2022/02/16 09:08:00;;;;;;;639.43;604.23;;;10.90;99.90;;;;;;4412675;32;20153;-62
2022/02/16 09:10:29;;;;;;;631.00;596.40;;;10.90;99.90;;;;;;4413245;32;20473;-60
2022/02/16 09:12:56;;;;;;;640.73;606.37;;;11.00;99.90;;;;;;4419878;32;20452;-60
2022/02/16 09:15:26;;;;;;;619.67;586.57;;;11.00;99.90;;;;;;4422943;32;20155;-62
2022/02/16 09:17:53;;;;;;;646.40;610.13;;;11.10;99.90;;;;;;4421837;32;20571;-61
2022/02/16 09:20:21;;;;;;;636.67;600.80;;;11.20;99.90;;;;;;4413462;32;20140;-61
2022/02/16 09:22:51;;;;;;;627.23;593.07;;;11.30;99.90;;;;;;4392762;32;20211;-60
2022/02/16 09:25:19;;;;;;;615.87;582.50;;;11.30;99.90;;;;;;4393326;32;20137;-61
2022/02/16 09:27:49;;;;;;;615.67;582.23;;;11.40;99.90;;;;;;4393469;32;20207;-60
2022/02/16 09:30:16;;;;;;;570.17;539.93;;;11.50;99.90;;;;;;4392713;32;20180;-61
2022/02/16 09:32:43;;;;;;;555.77;526.40;;;11.60;99.90;;;;;;4393039;32;20457;-60
2022/02/16 09:35:10;;;;;;;555.87;526.23;;;11.60;99.90;;;;;;4392424;32;20132;-60
2022/02/16 09:37:37;;;;;;;579.53;549.10;;;11.60;99.90;;;;;;4392123;32;20140;-60
2022/02/16 09:40:06;;;;;;;569.33;539.07;;;11.70;99.90;;;;;;4391406;32;20141;-61
2022/02/16 09:42:33;;;;;;;560.57;531.80;;;11.90;99.90;;;;;;4391719;32;20162;-62
2022/02/16 09:45:03;;;;;;;532.67;506.30;;;12.00;99.90;;;;;;4392458;32;20163;-60
2022/02/16 09:47:32;;;;;;;541.83;515.00;;;12.10;99.90;;;;;;4392826;32;20144;-60
2022/02/16 09:49:59;;;;;;;529.57;502.73;;;12.10;99.90;;;;;;4393135;32;20661;-62
2022/02/16 09:52:27;;;;;;;517.07;491.13;;;12.20;99.90;;;;;;4401259;32;20189;-60
2022/02/16 09:54:57;;;;;;;496.27;470.60;;;12.30;99.90;;;;;;4406957;32;20180;-60
2022/02/16 09:57:27;;;;;;;507.13;481.93;;;12.40;99.90;;;;;;4406576;32;20217;-61
2022/02/16 09:59:54;;;;;;;491.57;467.57;;;12.40;99.90;;;;;;4406179;32;20156;-62
2022/02/16 10:02:23;;;;;;;471.40;448.43;;;12.50;99.90;;;;;;4403205;32;20139;-61
2022/02/16 10:04:55;;;;;;;470.70;446.77;;;12.50;99.90;;;;;;4411068;32;20212;-61
2022/02/16 10:07:30;;;;;;;466.83;444.03;;;12.50;99.90;;;;;;4412665;32;20166;-59
2022/02/16 10:10:11;;;;;;;447.20;426.13;;;12.50;99.90;;;;;;4412063;32;20162;-61
2022/02/16 10:12:44;;;;;;;458.93;436.10;;;12.50;99.90;;;;;;4403717;32;20228;-61
2022/02/16 10:15:12;;;;;;;455.80;433.93;;;12.50;99.90;;;;;;4406446;32;20235;-60
2022/02/16 10:17:40;;;;;;;467.13;444.60;;;12.50;99.90;;;;;;4404601;32;20174;-62
2022/02/16 10:20:09;;;;;;;449.93;428.73;;;12.70;99.90;;;;;;4405356;32;20159;-61
2022/02/16 10:22:42;;;;;;;462.53;440.17;;;12.70;99.90;;;;;;4411366;32;20580;-62
2022/02/16 10:25:12;;;;;;;446.83;425.07;;;12.80;99.90;;;;;;4421557;32;20461;-61
2022/02/16 10:27:39;;;;;;;452.93;431.93;;;12.80;99.90;;;;;;4422094;32;20136;-61
2022/02/16 10:30:16;;;;;;;447.83;426.93;;;12.80;99.90;;;;;;4421466;32;20185;-62
2022/02/16 10:32:44;;;;;;;453.90;432.43;;;12.90;99.90;;;;;;4411529;32;20143;-61
2022/02/16 10:35:11;;;;;;;435.00;414.40;;;12.80;99.90;;;;;;4406083;32;20147;-60
2022/02/16 10:37:40;;;;;;;439.70;419.37;;;12.70;99.90;;;;;;4406321;32;20158;-62
2022/02/16 10:40:14;;;;;;;442.53;421.83;;;12.70;99.90;;;;;;4406327;32;20186;-62
2022/02/16 10:42:53;;;;;;;438.90;418.40;;;12.70;99.90;;;;;;4403223;32;20192;-61
2022/02/16 10:45:24;;;;;;;427.33;407.53;;;12.60;99.90;;;;;;4406000;32;20143;-61
2022/02/16 10:47:54;;;;;;;442.30;421.87;;;12.50;99.90;;;;;;4407068;32;20565;-60
2022/02/16 10:50:31;;;;;;;460.90;439.37;;;12.40;99.90;;;;;;4405700;32;20222;-60
2022/02/16 10:53:12;;;;;;;445.73;424.90;;;12.40;99.90;;;;;;4403501;32;20163;-60
2022/02/16 10:55:50;;;;;;;484.87;461.57;;;12.30;99.90;;;;;;4405708;32;20144;-60
2022/02/16 10:58:22;;;;;;;460.83;439.07;;;12.30;99.90;;;;;;4406306;32;20139;-62
2022/02/16 11:00:51;;;;;;;466.33;444.07;;;12.20;99.90;;;;;;4399654;32;20140;-60
2022/02/16 11:03:27;;;;;;;470.40;447.73;;;12.30;99.90;;;;;;4390657;32;20174;-61
2022/02/16 11:05:55;;;;;;;449.70;428.40;;;12.30;99.90;;;;;;4390665;32;20197;-60
2022/02/16 11:08:43;;;;;;;470.00;446.27;;;12.30;99.90;;;;;;4390426;32;20136;-61
2022/02/16 11:11:14;;;;;;;465.00;443.20;;;12.30;99.90;;;;;;4391254;32;20152;-60
2022/02/16 11:13:45;;;;;;;467.33;445.40;;;12.30;99.90;;;;;;4390454;32;20140;-60
2022/02/16 11:16:17;;;;;;;459.23;436.37;;;12.30;99.90;;;;;;4391759;32;20190;-60
2022/02/16 11:18:50;;;;;;;461.77;439.53;;;12.20;99.90;;;;;;4390341;32;20148;-60
2022/02/16 11:21:23;;;;;;;470.83;448.17;;;12.10;99.90;;;;;;4396544;32;20163;-59
2022/02/16 11:23:54;;;;;;;453.07;431.27;;;12.20;99.90;;;;;;4413452;32;20186;-60
2022/02/16 11:26:41;;;;;;;484.47;460.17;;;12.10;99.90;;;;;;4404120;32;20219;-60
2022/02/16 11:29:42;;;;;;;464.40;441.43;;;12.10;99.90;;;;;;4402371;32;20189;-62
2022/02/16 11:32:27;;;;;;;459.23;436.37;;;12.10;99.90;;;;;;4405146;32;20556;-61
2022/02/16 11:35:30;;;;;;;449.97;428.27;;;12.20;99.90;;;;;;4406281;32;20170;-62
2022/02/16 11:38:10;;;;;;;445.93;424.97;;;12.20;99.90;;;;;;4409857;32;20204;-60
2022/02/16 11:40:40;;;;;;;452.90;430.87;;;12.20;99.90;;;;;;4409598;32;20151;-62
2022/02/16 11:43:10;;;;;;;460.97;439.30;;;12.10;99.90;;;;;;4409272;32;20170;-60
2022/02/16 11:46:00;;;;;;;456.57;433.97;;;12.10;99.90;;;;;;4406523;32;20147;-60
2022/02/16 11:48:49;;;;;;;456.73;435.37;;;12.10;99.90;;;;;;4409163;32;20171;-61
2022/02/16 11:51:42;;;;;;;456.03;433.87;;;12.10;99.90;;;;;;4405765;32;20226;-61
2022/02/16 11:54:48;;;;;;;452.27;430.63;;;12.10;99.90;;;;;;4331716;33;20541;-61
2022/02/16 11:57:51;;;;;;;426.23;405.93;;;12.20;99.90;;;;;;4331500;33;20291;-62
2022/02/16 12:00:30;;;;;;;430.23;410.17;;;12.20;99.90;;;;;;4331433;33;20581;-61
2022/02/16 12:03:18;;;;;;;430.97;411.20;;;12.20;99.90;;;;;;4327995;33;20187;-61
2022/02/16 12:05:56;;;;;;;446.87;425.80;;;12.20;99.90;;;;;;4331310;33;20263;-61
2022/02/16 12:08:30;;;;;;;454.87;432.50;;;12.20;99.90;;;;;;4331655;33;20161;-62
2022/02/16 12:11:06;;;;;;;446.20;424.50;;;12.30;99.90;;;;;;4331304;33;20211;-62
2022/02/16 12:13:49;;;;;;;454.60;432.77;;;12.40;99.90;;;;;;4329823;33;20149;-61
2022/02/16 12:16:27;;;;;;;416.37;396.87;;;12.40;99.90;;;;;;4331375;33;20244;-62
2022/02/16 12:19:03;;;;;;;427.20;405.90;;;12.50;99.90;;;;;;4331061;33;20141;-62
2022/02/16 12:21:49;;;;;;;428.23;407.73;;;12.50;99.90;;;;;;4332543;33;20148;-61
2022/02/16 12:24:35;;;;;;;411.30;391.83;;;12.50;99.90;;;;;;4318115;33;20222;-62
2022/02/16 12:27:17;;;;;;;;;;;;;;;;;;;;;
2022/02/16 12:29:49;;;;;;;409.13;389.03;;;12.30;99.90;;;;;;4316913;33;20185;-62